Main page
METAR-TAF:

METAR-TAF

Airports :

Ostend–Bruges International Airport

Ostend, Belgium

latitude: 51-12N, longitude: 002-52E, elevation: 4 m

Current weather observation

The report was made 28 minutes ago, at 02:50 UTC
Wind 2 kt from the South/Southeast
Temperature 15°C
Humidity 88%
Pressure 1013 hPa
Visibility 10 km or more
no clouds below 1500 m and no cumulonimbus

METAR: EBOS 260250Z 16002KT CAVOK 15/13 Q1013 NOSIG

Time: 05:18 (03:18 UTC)

Forecast

The report was made 4 hours and 8 minutes ago, at 23:10 UTC
Forecast valid from 26 at 00 UTC to 27 at 06 UTC
Wind 5 kt from the South
Visibility 10 km or more
Scattered clouds at a height of 4500 ft
Probability 30% :
Temporary
from 26 at 01 UTC to 26 at 04 UTC
Visibility: 4000 m
rain showers, rain
Probability 30% :
Temporary
from 26 at 12 UTC to 26 at 16 UTC
Visibility: 3500 m
Broken clouds at a height of 1400 ft, Cumulonimbus.
rain showers

TAF: EBOS 252310Z 2600/2706 18005KT 9999 SCT045 PROB30 TEMPO 2601/2604 4000 SHRA RA PROB30 TEMPO 2612/2616 3500 SHRA BKN014CB

Weather observations and forecasts of more than 4000 airports (METAR and TAF reports).

The available stations are represented by yellow and red dots on the map.

Hover mouse over dot to see the name of the station.

Then click to see weather observations and forecasts.

To change the map : click on the green buttons with a black cross to zoom in, on the green button with a dash to zoom out, or on the green arrows for adjacent maps.


METAR-TAF: